Locust Fork, Alabama
Current Conditions -  °F | °C
As of 11:53 AM on Wednesday 26 Nov 2014 (Local Time) from KBHM Reporting Station
Few Clouds Few Clouds  
Wind Chill: 53°   Ceiling: Unl
Heat Index: 53°   Visibility: 10mi
Dew Point: 23°   Wind: 7mph
Humidity: 31%   Direction: 240°WSW
Pressure: 30.17"   Gusts: NA
Location:  33.91°N, 86.62°W
Report Text: KBHM 261753Z 24006KT 10SM FEW250 12/M05 A3017 RMK AO2 SLP215 T01171050 10117 20006 58010
Loading
Personal Weather Stations






























Interactive Weather Map New forecast layout! Learn more

10-Day Weather Forecast

Advertisements
Track Severe Weather on mobile